KTVI

Details ICAO KTVI (TVI)
Name THOMASVILLE RGNL
Region United States
Timezone America/New_York (UTC-5.0)
Plans Departing 1
Arriving 3
Stats Elevation 264 ft / 80 m (AMSL)
Location 30.901821° -83.881083°
Runways 2
Magnetic Variation 5.087° W
Sunrise 2017-12-13 12:26:16 UTC / 2017-12-13 07:26:16 Local
Sunset 2017-12-13 22:36:14 UTC / 2017-12-13 17:36:14 Local
Advertisement - Login to hide

Runways

ID Width Length Bearing (true) Bearing (mag) Surface Threshold Offset Overrun Length
04 100 ft / 30 m 5,507 ft / 1,678 m 39.86° 44.95° Asphalt 0 ft / 0 m 0 ft / 0 m
14 100 ft / 30 m 5,001 ft / 1,524 m 133.30° 138.39° Asphalt 0 ft / 0 m 0 ft / 0 m
22 100 ft / 30 m 5,507 ft / 1,678 m 219.87° 224.96° Asphalt 0 ft / 0 m 0 ft / 0 m
32 100 ft / 30 m 5,001 ft / 1,524 m 313.30° 318.39° Asphalt 0 ft / 0 m 0 ft / 0 m

Map

Weather


0- 5 10 15 20 25 30 35+ Temperature / ° C

Clouds and Precipitation
Forecast for 2017-12-14 00:00 UTC. Updated an hour ago

Ground ~20,000 ft ~40,000 ft Winds

METAR

KTVI 140015Z AUTO 00000KT 10SM CLR 06/00 A3001 RMK AO2

TAF

Not found

Frequencies

Recorded 119.17 MHz AWOS 3
Approach 119.52 MHz VALDOSTA APP/DEP
Unicom 123.07 MHz CTAF/UNICOM
Warning: Do not use this data for real-world aviation or navigation. No guarantee of current accuracy is given.